Time,TemperatureF,DewpointF,PressureIn,WindDirection,WindDirectionDegrees,WindSpeedMPH,WindSpeedGustMPH,Humidity,HourlyPrecipIn,Conditions,Clouds,dailyrainin,SoftwareType,DateUTC
2013-01-12 00:02:00,7.0,0.0,-100.00,SE,140,6.0,9.0,70,0.00,,,-99.99,,2013-01-12 07:02:00,
2013-01-12 00:11:00,7.0,-1.0,-100.00,SE,135,4.0,7.0,70,0.00,,,-99.99,,2013-01-12 07:11:00,
2013-01-12 00:21:00,7.0,-1.0,-100.00,SE,135,4.0,7.0,70,0.00,,,-99.99,,2013-01-12 07:21:00,
2013-01-12 00:32:00,5.0,-3.0,-100.00,SSE,150,0.0,1.0,70,0.00,,,-99.99,,2013-01-12 07:32:00,
2013-01-12 00:42:00,5.0,-3.0,-100.00,SE,140,0.0,2.0,70,0.00,,,-99.99,,2013-01-12 07:42:00,
2013-01-12 00:52:00,5.0,-3.0,-100.00,SE,130,5.0,7.0,70,0.00,,,-99.99,,2013-01-12 07:52:00,
2013-01-12 01:02:00,5.0,-2.0,-100.00,ESE,105,4.0,9.0,71,0.00,,,-99.99,,2013-01-12 08:02:00,
2013-01-12 01:11:00,4.0,-3.0,-100.00,SE,125,4.0,6.0,71,0.00,,,-99.99,,2013-01-12 08:11:00,
2013-01-12 01:22:00,4.0,-3.0,-100.00,SE,135,6.0,8.0,71,0.00,,,-99.99,,2013-01-12 08:22:00,
2013-01-12 01:32:00,5.0,-2.0,-100.00,SE,130,7.0,11.0,71,0.00,,,-99.99,,2013-01-12 08:32:00,
2013-01-12 01:42:00,5.0,-2.0,-100.00,SE,125,4.0,12.0,71,0.00,,,-99.99,,2013-01-12 08:42:00,
2013-01-12 01:52:00,4.0,-3.0,-100.00,SE,130,1.0,4.0,71,0.00,,,-99.99,,2013-01-12 08:52:00,
2013-01-12 02:02:00,5.0,-2.0,-100.00,SW,215,1.0,6.0,71,0.00,,,-99.99,,2013-01-12 09:02:00,
2013-01-12 02:11:00,5.0,-2.0,-100.00,SE,145,0.0,2.0,71,0.00,,,-99.99,,2013-01-12 09:11:00,
2013-01-12 02:22:00,4.0,-3.0,-100.00,SE,125,4.0,9.0,71,0.00,,,-99.99,,2013-01-12 09:22:00,
2013-01-12 02:32:00,5.0,-3.0,-100.00,SE,135,2.0,4.0,71,0.00,,,-99.99,,2013-01-12 09:32:00,
2013-01-12 02:42:00,5.0,-2.0,-100.00,SE,130,4.0,7.0,71,0.00,,,-99.99,,2013-01-12 09:42:00,
2013-01-12 02:52:00,5.0,-2.0,-100.00,NNE,30,1.0,9.0,71,0.00,,,-99.99,,2013-01-12 09:52:00,
2013-01-12 03:02:00,5.0,-2.0,-100.00,NE,40,0.0,0.0,71,0.00,,,-99.99,,2013-01-12 10:02:00,
2013-01-12 03:11:00,5.0,-2.0,-100.00,East,100,0.0,2.0,71,0.00,,,-99.99,,2013-01-12 10:11:00,
2013-01-12 03:22:00,5.0,-2.0,-100.00,WNW,285,0.0,0.0,71,0.00,,,-99.99,,2013-01-12 10:22:00,
2013-01-12 03:32:00,5.0,-2.0,-100.00,North,350,1.0,2.0,71,0.00,,,-99.99,,2013-01-12 10:32:00,
2013-01-12 03:42:00,6.0,-1.0,-100.00,ENE,75,1.0,3.0,71,0.00,,,-99.99,,2013-01-12 10:42:00,
2013-01-12 03:52:00,6.0,-1.0,-100.00,East,80,2.0,6.0,71,0.00,,,-99.99,,2013-01-12 10:52:00,
2013-01-12 04:02:00,6.0,-1.0,-100.00,South,185,2.0,4.0,71,0.00,,,-99.99,,2013-01-12 11:02:00,
2013-01-12 04:12:00,6.0,-1.0,-100.00,North,0,0.0,7.0,71,0.00,,,-99.99,,2013-01-12 11:12:00,
2013-01-12 04:22:00,6.0,-1.0,-100.00,ESE,105,1.0,6.0,71,0.00,,,-99.99,,2013-01-12 11:22:00,
2013-01-12 04:32:00,6.0,-1.0,-100.00,ESE,115,6.0,8.0,71,0.00,,,-99.99,,2013-01-12 11:32:00,
2013-01-12 04:42:00,6.0,-1.0,-100.00,ESE,120,8.0,11.0,70,0.00,,,-99.99,,2013-01-12 11:42:00,
2013-01-12 04:52:00,6.0,-2.0,-100.00,ESE,115,6.0,12.0,68,0.00,,,-99.99,,2013-01-12 11:52:00,
2013-01-12 05:02:00,6.0,-3.0,-100.00,ESE,110,9.0,12.0,67,0.00,,,-99.99,,2013-01-12 12:02:00,
2013-01-12 05:11:00,6.0,-3.0,-100.00,ESE,120,7.0,11.0,66,0.00,,,-99.99,,2013-01-12 12:11:00,
2013-01-12 05:22:00,5.0,-4.0,-100.00,ESE,110,7.0,12.0,65,0.00,,,-99.99,,2013-01-12 12:22:00,
2013-01-12 05:32:00,5.0,-4.0,-100.00,ESE,120,9.0,14.0,65,0.00,,,-99.99,,2013-01-12 12:32:00,
2013-01-12 05:42:00,5.0,-4.0,-100.00,East,95,7.0,14.0,64,0.00,,,-99.99,,2013-01-12 12:42:00,
2013-01-12 05:52:00,4.0,-5.0,-100.00,ESE,120,11.0,16.0,64,0.00,,,-99.99,,2013-01-12 12:52:00,
2013-01-12 06:02:00,4.0,-5.0,-100.00,SE,130,10.0,14.0,63,0.00,,,-99.99,,2013-01-12 13:02:00,
2013-01-12 06:12:00,4.0,-6.0,-100.00,SE,140,9.0,12.0,63,0.00,,,-99.99,,2013-01-12 13:12:00,
2013-01-12 06:22:00,3.0,-7.0,-100.00,SE,125,11.0,14.0,63,0.00,,,-99.99,,2013-01-12 13:22:00,
2013-01-12 06:32:00,3.0,-7.0,-100.00,SE,125,9.0,16.0,62,0.00,,,-99.99,,2013-01-12 13:32:00,
2013-01-12 06:42:00,3.0,-7.0,-100.00,SE,140,12.0,18.0,62,0.00,,,-99.99,,2013-01-12 13:42:00,
2013-01-12 06:52:00,2.0,-7.0,-100.00,SE,135,10.0,15.0,62,0.00,,,-99.99,,2013-01-12 13:52:00,
2013-01-12 07:02:00,2.0,-8.0,-100.00,SE,125,11.0,15.0,62,0.00,,,-99.99,,2013-01-12 14:02:00,
2013-01-12 07:12:00,2.0,-8.0,-100.00,SE,130,9.0,16.0,62,0.00,,,-99.99,,2013-01-12 14:12:00,
2013-01-12 07:22:00,2.0,-8.0,-100.00,SE,130,8.0,14.0,62,0.00,,,-99.99,,2013-01-12 14:22:00,
2013-01-12 07:32:00,2.0,-8.0,-100.00,SE,125,9.0,16.0,62,0.00,,,-99.99,,2013-01-12 14:32:00,
2013-01-12 07:43:00,2.0,-8.0,-100.00,ESE,110,4.0,11.0,62,0.00,,,-99.99,,2013-01-12 14:43:00,
2013-01-12 07:53:00,2.0,-8.0,-100.00,ESE,105,7.0,12.0,62,0.00,,,-99.99,,2013-01-12 14:53:00,
2013-01-12 08:03:00,1.0,-9.0,-100.00,South,170,2.0,12.0,62,0.00,,,-99.99,,2013-01-12 15:03:00,
2013-01-12 08:12:00,0.0,-10.0,-100.00,ESE,110,1.0,7.0,62,0.00,,,-99.99,,2013-01-12 15:12:00,
2013-01-12 08:22:00,1.0,-9.0,-100.00,SE,135,4.0,7.0,62,0.00,,,-99.99,,2013-01-12 15:22:00,
2013-01-12 08:33:00,1.0,-9.0,-100.00,SE,145,4.0,8.0,63,0.00,,,-99.99,,2013-01-12 15:33:00,
2013-01-12 08:42:00,2.0,-7.0,-100.00,SSE,160,1.0,7.0,63,0.00,,,-99.99,,2013-01-12 15:42:00,
2013-01-12 08:52:00,3.0,-7.0,-100.00,SE,145,3.0,6.0,63,0.00,,,-99.99,,2013-01-12 15:52:00,
2013-01-12 09:02:00,3.0,-7.0,-100.00,SE,140,6.0,8.0,62,0.00,,,-99.99,,2013-01-12 16:02:00,
2013-01-12 09:12:00,4.0,-7.0,-100.00,NE,45,2.0,12.0,61,0.00,,,-99.99,,2013-01-12 16:12:00,
2013-01-12 09:22:00,6.0,-5.0,-100.00,SE,130,4.0,7.0,61,0.00,,,-99.99,,2013-01-12 16:22:00,
2013-01-12 09:32:00,6.0,-6.0,-100.00,SE,135,9.0,12.0,59,0.00,,,-99.99,,2013-01-12 16:32:00,
2013-01-12 09:42:00,7.0,-5.0,-100.00,East,100,2.0,12.0,57,0.00,,,-99.99,,2013-01-12 16:42:00,
2013-01-12 09:52:00,10.0,-2.0,-100.00,East,100,2.0,5.0,57,0.00,,,-99.99,,2013-01-12 16:52:00,
2013-01-12 10:02:00,12.0,-1.0,-100.00,ESE,105,2.0,6.0,56,0.00,,,-99.99,,2013-01-12 17:02:00,
2013-01-12 10:12:00,12.0,-1.0,-100.00,ESE,120,1.0,6.0,54,0.00,,,-99.99,,2013-01-12 17:12:00,
2013-01-12 10:22:00,13.0,-1.0,-100.00,SE,145,1.0,5.0,52,0.00,,,-99.99,,2013-01-12 17:22:00,
2013-01-12 10:32:00,13.0,-1.0,-100.00,SW,225,0.0,7.0,50,0.00,,,-99.99,,2013-01-12 17:32:00,
2013-01-12 10:42:00,17.0,1.0,-100.00,WSW,245,0.0,1.0,49,0.00,,,-99.99,,2013-01-12 17:42:00,
2013-01-12 10:52:00,17.0,1.0,-100.00,SW,215,0.0,0.0,46,0.00,,,-99.99,,2013-01-12 17:52:00,
2013-01-12 11:02:00,19.0,1.0,-100.00,WSW,250,0.0,3.0,44,0.00,,,-99.99,,2013-01-12 18:02:00,
2013-01-12 11:12:00,21.0,2.0,-100.00,WSW,255,0.0,0.0,42,0.00,,,-99.99,,2013-01-12 18:12:00,
2013-01-12 11:22:00,21.0,0.0,-100.00,WSW,245,0.0,0.0,40,0.00,,,-99.99,,2013-01-12 18:22:00,
2013-01-12 11:33:00,21.0,0.0,-100.00,SSW,205,1.0,2.0,38,0.00,,,-99.99,,2013-01-12 18:33:00,
2013-01-12 11:42:00,22.0,-1.0,-100.00,SW,220,0.0,2.0,36,0.00,,,-99.99,,2013-01-12 18:42:00,
2013-01-12 11:52:00,22.0,-1.0,-100.00,WNW,295,0.0,2.0,35,0.00,,,-99.99,,2013-01-12 18:52:00,
2013-01-12 12:02:00,24.0,0.0,-100.00,West,265,2.0,4.0,34,0.00,,,-99.99,,2013-01-12 19:02:00,
2013-01-12 12:12:00,25.0,0.0,-100.00,WSW,255,2.0,4.0,33,0.00,,,-99.99,,2013-01-12 19:12:00,
2013-01-12 12:22:00,22.0,-2.0,-100.00,West,280,2.0,7.0,32,0.00,,,-99.99,,2013-01-12 19:22:00,
2013-01-12 12:32:00,23.0,-2.0,-100.00,WSW,250,2.0,6.0,32,0.00,,,-99.99,,2013-01-12 19:32:00,
2013-01-12 12:42:00,25.0,-1.0,-100.00,West,260,0.0,3.0,32,0.00,,,-99.99,,2013-01-12 19:42:00,
2013-01-12 12:52:00,25.0,0.0,-100.00,West,260,0.0,4.0,32,0.00,,,-99.99,,2013-01-12 19:52:00,
2013-01-12 13:02:00,24.0,-1.0,-100.00,WSW,250,3.0,6.0,32,0.00,,,-99.99,,2013-01-12 20:02:00,
2013-01-12 13:12:00,24.0,-2.0,-100.00,West,265,2.0,7.0,32,0.00,,,-99.99,,2013-01-12 20:12:00,
2013-01-12 13:22:00,23.0,-2.0,-100.00,SW,215,0.0,4.0,32,0.00,,,-99.99,,2013-01-12 20:22:00,
2013-01-12 13:32:00,23.0,-2.0,-100.00,SW,215,2.0,4.0,32,0.00,,,-99.99,,2013-01-12 20:32:00,
2013-01-12 13:42:00,22.0,-3.0,-100.00,SW,225,0.0,4.0,32,0.00,,,-99.99,,2013-01-12 20:42:00,
2013-01-12 13:52:00,22.0,-3.0,-100.00,WSW,240,1.0,4.0,33,0.00,,,-99.99,,2013-01-12 20:52:00,
2013-01-12 14:02:00,21.0,-3.0,-100.00,West,260,4.0,7.0,33,0.00,,,-99.99,,2013-01-12 21:02:00,
2013-01-12 14:12:00,23.0,-1.0,-100.00,West,265,2.0,7.0,34,0.00,,,-99.99,,2013-01-12 21:12:00,
2013-01-12 14:22:00,24.0,0.0,-100.00,WSW,255,2.0,5.0,34,0.00,,,-99.99,,2013-01-12 21:22:00,
2013-01-12 14:32:00,22.0,-1.0,-100.00,West,260,4.0,9.0,34,0.00,,,-99.99,,2013-01-12 21:32:00,
2013-01-12 14:42:00,23.0,-1.0,-100.00,WSW,255,5.0,9.0,34,0.00,,,-99.99,,2013-01-12 21:42:00,
2013-01-12 14:52:00,21.0,-2.0,-100.00,WNW,290,4.0,7.0,35,0.00,,,-99.99,,2013-01-12 21:52:00,
2013-01-12 15:02:00,19.0,-3.0,-100.00,West,270,4.0,10.0,36,0.00,,,-99.99,,2013-01-12 22:02:00,
2013-01-12 15:12:00,18.0,-3.0,-100.00,West,265,4.0,7.0,38,0.00,,,-99.99,,2013-01-12 22:12:00,
2013-01-12 15:22:00,19.0,-1.0,-100.00,West,260,5.0,7.0,41,0.00,,,-99.99,,2013-01-12 22:22:00,
2013-01-12 15:32:00,17.0,-1.0,-100.00,West,260,4.0,7.0,43,0.00,,,-99.99,,2013-01-12 22:32:00,
2013-01-12 15:42:00,17.0,-1.0,-100.00,West,270,3.0,7.0,44,0.00,,,-99.99,,2013-01-12 22:42:00,
2013-01-12 15:52:00,16.0,0.0,-100.00,West,260,2.0,7.0,46,0.00,,,-99.99,,2013-01-12 22:52:00,
2013-01-12 16:02:00,16.0,0.0,-100.00,SW,235,1.0,5.0,49,0.00,,,-99.99,,2013-01-12 23:02:00,
2013-01-12 16:12:00,16.0,1.0,-100.00,West,260,1.0,4.0,51,0.00,,,-99.99,,2013-01-12 23:12:00,
2013-01-12 16:22:00,15.0,1.0,-100.00,WSW,250,2.0,6.0,53,0.00,,,-99.99,,2013-01-12 23:22:00,
2013-01-12 16:32:00,15.0,2.0,-100.00,WSW,250,2.0,4.0,56,0.00,,,-99.99,,2013-01-12 23:32:00,
2013-01-12 16:42:00,14.0,2.0,-100.00,WSW,255,1.0,6.0,58,0.00,,,-99.99,,2013-01-12 23:42:00,
2013-01-12 16:52:00,14.0,3.0,-100.00,NW,305,2.0,4.0,60,0.00,,,-99.99,,2013-01-12 23:52:00,
2013-01-12 17:02:00,14.0,3.0,-100.00,SW,235,0.0,3.0,62,0.00,,,-99.99,,2013-01-13 00:02:00,
2013-01-12 17:12:00,13.0,3.0,-100.00,SW,235,0.0,0.0,64,0.00,,,-99.99,,2013-01-13 00:12:00,
2013-01-12 17:22:00,13.0,3.0,-100.00,WSW,245,1.0,2.0,65,0.00,,,-99.99,,2013-01-13 00:22:00,
2013-01-12 17:32:00,12.0,3.0,-100.00,South,180,0.0,2.0,66,0.00,,,-99.99,,2013-01-13 00:32:00,
2013-01-12 17:42:00,12.0,4.0,-100.00,ESE,115,4.0,4.0,68,0.00,,,-99.99,,2013-01-13 00:42:00,
2013-01-12 17:52:00,13.0,4.0,-100.00,ESE,120,2.0,6.0,69,0.00,,,-99.99,,2013-01-13 00:52:00,
2013-01-12 18:02:00,12.0,5.0,-100.00,ESE,120,3.0,4.0,70,0.00,,,-99.99,,2013-01-13 01:02:00,
2013-01-12 18:12:00,11.0,4.0,-100.00,SSE,155,0.0,4.0,70,0.00,,,-99.99,,2013-01-13 01:12:00,
2013-01-12 18:22:00,10.0,3.0,-100.00,SSE,160,2.0,4.0,71,0.00,,,-99.99,,2013-01-13 01:22:00,
2013-01-12 18:32:00,10.0,3.0,-100.00,SE,130,4.0,6.0,72,0.00,,,-99.99,,2013-01-13 01:32:00,
2013-01-12 18:42:00,10.0,3.0,-100.00,SE,130,4.0,7.0,72,0.00,,,-99.99,,2013-01-13 01:42:00,
2013-01-12 18:52:00,9.0,2.0,-100.00,SE,130,6.0,9.0,73,0.00,,,-99.99,,2013-01-13 01:52:00,
2013-01-12 19:02:00,8.0,2.0,-100.00,SE,130,6.0,9.0,74,0.00,,,-99.99,,2013-01-13 02:02:00,
2013-01-12 19:12:00,8.0,2.0,-100.00,SE,125,6.0,9.0,74,0.00,,,-99.99,,2013-01-13 02:12:00,
2013-01-12 19:22:00,8.0,2.0,-100.00,ESE,120,7.0,9.0,75,0.00,,,-99.99,,2013-01-13 02:22:00,
2013-01-12 19:32:00,8.0,2.0,-100.00,ESE,110,5.0,9.0,75,0.00,,,-99.99,,2013-01-13 02:32:00,
2013-01-12 19:42:00,7.0,1.0,-100.00,SE,130,7.0,9.0,75,0.00,,,-99.99,,2013-01-13 02:42:00,
2013-01-12 19:52:00,8.0,2.0,-100.00,SE,125,6.0,12.0,75,0.00,,,-99.99,,2013-01-13 02:52:00,
2013-01-12 20:02:00,8.0,1.0,-100.00,North,0,2.0,7.0,75,0.00,,,-99.99,,2013-01-13 03:02:00,
2013-01-12 20:12:00,8.0,1.0,-100.00,SE,130,4.0,6.0,75,0.00,,,-99.99,,2013-01-13 03:12:00,
2013-01-12 20:22:00,7.0,1.0,-100.00,SE,135,6.0,10.0,75,0.00,,,-99.99,,2013-01-13 03:22:00,
2013-01-12 20:32:00,7.0,1.0,-100.00,SE,145,4.0,9.0,75,0.00,,,-99.99,,2013-01-13 03:32:00,
2013-01-12 20:42:00,6.0,0.0,-100.00,SSE,165,1.0,6.0,75,0.00,,,-99.99,,2013-01-13 03:42:00,
2013-01-12 20:52:00,6.0,0.0,-100.00,SSW,195,0.0,5.0,75,0.00,,,-99.99,,2013-01-13 03:52:00,
2013-01-12 21:02:00,6.0,0.0,-100.00,SE,140,1.0,7.0,75,0.00,,,-99.99,,2013-01-13 04:02:00,
2013-01-12 21:12:00,5.0,-1.0,-100.00,SE,140,3.0,7.0,75,0.00,,,-99.99,,2013-01-13 04:12:00,
2013-01-12 21:22:00,6.0,0.0,-100.00,East,85,1.0,7.0,75,0.00,,,-99.99,,2013-01-13 04:22:00,
2013-01-12 21:32:00,6.0,0.0,-100.00,SE,135,7.0,10.0,75,0.00,,,-99.99,,2013-01-13 04:32:00,
2013-01-12 21:42:00,6.0,1.0,-100.00,SE,140,6.0,9.0,75,0.00,,,-99.99,,2013-01-13 04:42:00,
2013-01-12 21:52:00,6.0,0.0,-100.00,SE,135,3.0,9.0,75,0.00,,,-99.99,,2013-01-13 04:52:00,
2013-01-12 22:03:00,6.0,0.0,-100.00,SSE,150,5.0,9.0,75,0.00,,,-99.99,,2013-01-13 05:03:00,
2013-01-12 22:12:00,6.0,0.0,-100.00,SE,135,5.0,8.0,75,0.00,,,-99.99,,2013-01-13 05:12:00,
2013-01-12 22:22:00,6.0,1.0,-100.00,ESE,120,6.0,9.0,75,0.00,,,-99.99,,2013-01-13 05:22:00,
2013-01-12 22:32:00,6.0,0.0,-100.00,ESE,115,6.0,9.0,75,0.00,,,-99.99,,2013-01-13 05:32:00,
2013-01-12 22:42:00,6.0,1.0,-100.00,ESE,115,6.0,9.0,75,0.00,,,-99.99,,2013-01-13 05:42:00,
2013-01-12 22:52:00,7.0,1.0,-100.00,SE,130,6.0,9.0,75,0.00,,,-99.99,,2013-01-13 05:52:00,
2013-01-12 23:02:00,6.0,0.0,-100.00,SE,125,7.0,11.0,74,0.00,,,-99.99,,2013-01-13 06:02:00,
2013-01-12 23:12:00,6.0,-1.0,-100.00,ESE,120,8.0,11.0,72,0.00,,,-99.99,,2013-01-13 06:12:00,
2013-01-12 23:22:00,6.0,-1.0,-100.00,SE,125,9.0,13.0,71,0.00,,,-99.99,,2013-01-13 06:22:00,
2013-01-12 23:32:00,6.0,-1.0,-100.00,SE,125,7.0,12.0,70,0.00,,,-99.99,,2013-01-13 06:32:00,
2013-01-12 23:42:00,6.0,-2.0,-100.00,SE,130,9.0,12.0,69,0.00,,,-99.99,,2013-01-13 06:42:00,
2013-01-12 23:52:00,6.0,-2.0,-100.00,SE,125,7.0,12.0,68,0.00,,,-99.99,,2013-01-13 06:52:00,